createdAt,value
2022-07-29T00:01:19.494Z,57.54
2022-07-29T00:03:21.401Z,57.67
2022-07-29T00:05:22.957Z,57.86
2022-07-29T00:07:24.470Z,57.74
2022-07-29T00:09:27.335Z,57.64
2022-07-29T00:11:29.064Z,58.06
2022-07-29T00:13:32.426Z,57.99
2022-07-29T00:15:34.421Z,58.02
2022-07-29T00:17:35.953Z,58.23
2022-07-29T00:19:37.455Z,58.32
2022-07-29T00:21:39.000Z,58.62
2022-07-29T00:23:40.643Z,58.77
2022-07-29T00:25:43.534Z,59.00
2022-07-29T00:27:45.043Z,59.12
2022-07-29T00:29:46.795Z,59.24
2022-07-29T00:31:48.344Z,59.49
2022-07-29T00:33:49.968Z,59.45
2022-07-29T00:35:51.530Z,59.80
2022-07-29T00:37:54.553Z,59.70
2022-07-29T00:39:56.295Z,59.94
2022-07-29T00:41:59.150Z,60.19
2022-07-29T00:44:00.657Z,60.50
2022-07-29T00:46:02.207Z,60.74
2022-07-29T00:48:04.444Z,60.86
2022-07-29T00:50:07.867Z,61.00
2022-07-29T00:52:10.896Z,60.90
2022-07-29T00:54:13.914Z,61.14
2022-07-29T00:56:15.695Z,61.34
2022-07-29T00:58:18.680Z,61.46
2022-07-29T01:00:22.388Z,61.62
2022-07-29T01:02:24.002Z,61.90
2022-07-29T01:04:25.933Z,62.25
2022-07-29T01:06:27.875Z,62.31
2022-07-29T01:08:29.461Z,62.58
2022-07-29T01:10:31.430Z,62.74
2022-07-29T01:12:35.283Z,62.73
2022-07-29T01:14:39.104Z,63.04
2022-07-29T01:16:46.747Z,63.20
2022-07-29T01:18:52.820Z,63.65
2022-07-29T01:21:24.762Z,64.09
2022-07-29T01:23:45.365Z,64.05
2022-07-29T01:25:59.171Z,64.29
2022-07-29T01:28:15.361Z,64.45
2022-07-29T01:30:18.393Z,64.70
2022-07-29T01:32:28.537Z,64.62
2022-07-29T01:34:42.112Z,65.05
2022-07-29T01:36:47.797Z,64.91
2022-07-29T01:38:58.781Z,65.26
2022-07-29T01:41:07.392Z,65.80
2022-07-29T01:43:13.694Z,65.85
2022-07-29T01:45:19.445Z,66.44
2022-07-29T01:47:26.492Z,66.52
2022-07-29T01:49:32.128Z,66.69
2022-07-29T01:51:40.981Z,67.00
2022-07-29T01:53:47.080Z,67.04
2022-07-29T01:55:51.188Z,67.16
2022-07-29T01:57:53.182Z,67.26
2022-07-29T01:59:56.905Z,67.45
2022-07-29T02:02:01.050Z,67.72
2022-07-29T02:04:05.767Z,67.77
2022-07-29T02:06:10.473Z,67.85
2022-07-29T02:08:14.077Z,67.65
2022-07-29T02:10:19.616Z,67.96
2022-07-29T02:12:31.199Z,68.14
2022-07-29T02:14:37.088Z,68.25
2022-07-29T02:16:41.084Z,68.21
2022-07-29T02:18:46.049Z,68.29
2022-07-29T02:20:50.141Z,68.14
2022-07-29T02:22:55.248Z,68.07
2022-07-29T02:24:58.105Z,68.18
2022-07-29T02:27:01.557Z,68.07
2022-07-29T02:29:03.410Z,68.04
2022-07-29T02:31:06.234Z,68.29
2022-07-29T02:33:09.433Z,68.39
2022-07-29T02:35:15.091Z,68.47
2022-07-29T02:37:17.638Z,68.45
2022-07-29T02:39:20.454Z,68.37
2022-07-29T02:41:27.193Z,68.27
2022-07-29T02:43:34.734Z,68.45
2022-07-29T02:45:36.379Z,68.37
2022-07-29T02:47:42.597Z,68.69
2022-07-29T02:49:51.902Z,68.70
2022-07-29T02:51:59.888Z,68.80
2022-07-29T02:54:07.554Z,69.31
2022-07-29T02:56:11.451Z,69.79
2022-07-29T02:58:20.452Z,69.75
2022-07-29T03:00:24.565Z,69.58
2022-07-29T03:02:28.243Z,69.52
2022-07-29T03:04:32.789Z,69.58
2022-07-29T03:06:38.552Z,69.34
2022-07-29T03:08:43.310Z,69.51
2022-07-29T03:10:47.094Z,69.63
2022-07-29T03:12:49.592Z,69.83
2022-07-29T03:14:51.973Z,70.00
2022-07-29T03:16:54.293Z,69.77
2022-07-29T03:18:56.599Z,69.75
2022-07-29T03:20:58.607Z,69.65
2022-07-29T03:23:00.324Z,69.85
2022-07-29T03:25:10.237Z,70.09
2022-07-29T03:27:11.843Z,70.17
2022-07-29T03:29:13.491Z,70.44
2022-07-29T03:31:15.599Z,70.47
2022-07-29T03:33:17.141Z,70.58
2022-07-29T03:35:18.950Z,70.58
2022-07-29T03:37:20.549Z,70.27
2022-07-29T03:39:26.340Z,70.21
2022-07-29T03:41:31.187Z,70.38
2022-07-29T03:43:36.833Z,70.30
2022-07-29T03:45:39.752Z,70.38
2022-07-29T03:47:51.053Z,70.16
2022-07-29T03:49:57.734Z,70.62
2022-07-29T03:51:59.352Z,70.57
2022-07-29T03:54:05.025Z,70.58
2022-07-29T03:56:16.311Z,70.59
2022-07-29T03:58:19.754Z,70.82
2022-07-29T04:00:22.497Z,70.79
2022-07-29T04:02:28.725Z,70.72
2022-07-29T04:04:33.769Z,70.57
2022-07-29T04:06:42.914Z,70.30
2022-07-29T04:08:44.439Z,70.70
2022-07-29T04:10:46.010Z,70.64
2022-07-29T04:12:47.587Z,70.77
2022-07-29T04:14:50.463Z,70.52
2022-07-29T04:16:51.957Z,70.36
2022-07-29T04:18:53.628Z,70.13
2022-07-29T04:20:55.271Z,69.97
2022-07-29T04:22:56.833Z,70.22
2022-07-29T04:25:03.509Z,69.94
2022-07-29T04:27:05.639Z,70.24
2022-07-29T04:29:07.198Z,69.97
2022-07-29T04:31:10.758Z,69.99
2022-07-29T04:33:12.376Z,69.90
2022-07-29T04:35:13.866Z,69.50
2022-07-29T04:37:15.392Z,69.27
2022-07-29T04:39:22.165Z,69.31
2022-07-29T04:41:32.672Z,69.14
2022-07-29T04:43:36.837Z,69.08
2022-07-29T04:45:38.569Z,68.52
2022-07-29T04:47:41.703Z,68.79
2022-07-29T04:49:43.194Z,67.83
2022-07-29T04:51:44.736Z,67.61
2022-07-29T04:53:46.234Z,67.25
2022-07-29T04:55:47.726Z,67.13
2022-07-29T04:57:49.300Z,67.46
2022-07-29T04:59:50.802Z,67.98
2022-07-29T05:01:52.372Z,67.82
2022-07-29T05:04:00.106Z,67.47
2022-07-29T05:06:02.100Z,67.21
2022-07-29T05:08:03.901Z,66.80
2022-07-29T05:10:06.446Z,66.66
2022-07-29T05:12:08.447Z,66.39
2022-07-29T05:14:09.989Z,66.21
2022-07-29T05:16:11.608Z,66.14
2022-07-29T05:18:13.306Z,66.12
2022-07-29T05:20:16.152Z,65.94
2022-07-29T05:22:18.318Z,65.46
2022-07-29T05:24:20.179Z,64.77
2022-07-29T05:26:21.898Z,64.52
2022-07-29T05:28:23.603Z,64.43
2022-07-29T05:30:25.397Z,65.35
2022-07-29T05:32:26.887Z,64.48
2022-07-29T05:34:28.403Z,64.50
2022-07-29T05:36:31.263Z,64.88
2022-07-29T05:38:32.831Z,64.13
2022-07-29T05:40:34.367Z,64.24
2022-07-29T05:42:36.087Z,64.29
2022-07-29T05:44:38.177Z,64.61
2022-07-29T05:46:39.915Z,64.71
2022-07-29T05:48:41.509Z,63.69
2022-07-29T05:50:44.207Z,63.59
2022-07-29T05:52:47.356Z,63.16
2022-07-29T05:54:51.411Z,62.38
2022-07-29T05:56:52.915Z,62.45
2022-07-29T05:58:54.597Z,61.25
2022-07-29T06:00:56.096Z,59.86
2022-07-29T06:02:57.613Z,60.07
2022-07-29T06:04:59.193Z,59.17
2022-07-29T06:07:00.770Z,59.16
2022-07-29T06:09:12.198Z,58.03
2022-07-29T06:11:14.568Z,57.18
2022-07-29T06:13:16.127Z,57.16
2022-07-29T06:15:17.762Z,56.71
2022-07-29T06:17:19.294Z,57.13
2022-07-29T06:19:20.820Z,56.69
2022-07-29T06:21:22.337Z,56.83
2022-07-29T06:23:24.011Z,56.28
2022-07-29T06:25:27.197Z,56.21
2022-07-29T06:27:28.762Z,56.25
2022-07-29T06:29:30.400Z,56.10
2022-07-29T06:31:31.937Z,55.88
2022-07-29T06:33:33.482Z,55.96
2022-07-29T06:35:38.765Z,54.82
2022-07-29T06:37:43.718Z,54.89
2022-07-29T06:39:47.411Z,54.81
2022-07-29T06:41:51.030Z,54.85
2022-07-29T06:43:54.741Z,55.33
2022-07-29T06:46:00.252Z,55.96
2022-07-29T06:48:01.862Z,55.93
2022-07-29T06:50:03.903Z,55.86
2022-07-29T06:52:09.308Z,55.92
2022-07-29T06:54:10.859Z,55.66
2022-07-29T06:56:12.453Z,55.81
2022-07-29T06:58:15.323Z,55.46
2022-07-29T07:00:17.221Z,55.54
2022-07-29T07:02:18.770Z,55.16
2022-07-29T07:04:20.952Z,54.79
2022-07-29T07:06:22.905Z,53.37
2022-07-29T07:08:24.651Z,53.83
2022-07-29T07:10:26.226Z,53.72
2022-07-29T07:12:27.764Z,53.07
2022-07-29T07:14:30.673Z,52.80
2022-07-29T07:16:33.035Z,52.43
2022-07-29T07:18:34.776Z,52.13
2022-07-29T07:20:37.047Z,52.14
2022-07-29T07:22:39.104Z,51.41
2022-07-29T07:24:40.828Z,51.61
2022-07-29T07:26:42.351Z,51.09
2022-07-29T07:28:44.060Z,50.39
2022-07-29T07:30:47.160Z,49.34
2022-07-29T07:32:48.735Z,49.26
2022-07-29T07:34:50.342Z,48.82
2022-07-29T07:36:51.871Z,48.77
2022-07-29T07:38:53.454Z,48.14
2022-07-29T07:40:54.990Z,48.02
2022-07-29T07:42:56.554Z,48.10
2022-07-29T07:45:13.183Z,47.26
2022-07-29T07:49:19.925Z,45.45
2022-07-29T07:51:21.503Z,45.84
2022-07-29T07:53:23.072Z,45.01
2022-07-29T07:55:25.041Z,44.90
2022-07-29T07:57:26.571Z,43.89
2022-07-29T07:59:28.111Z,43.39
2022-07-29T08:01:29.722Z,43.03
2022-07-29T08:03:51.123Z,43.33
2022-07-29T08:05:52.685Z,43.54
2022-07-29T08:07:54.285Z,43.25
2022-07-29T08:09:55.771Z,42.52
2022-07-29T08:11:58.399Z,42.81
2022-07-29T08:14:00.037Z,42.91
2022-07-29T08:16:01.643Z,42.78
2022-07-29T08:18:08.364Z,41.88
2022-07-29T08:20:12.004Z,41.45
2022-07-29T08:22:13.514Z,42.15
2022-07-29T08:24:15.023Z,41.29
2022-07-29T08:26:16.683Z,41.82
2022-07-29T08:28:18.234Z,40.79
2022-07-29T08:30:19.990Z,40.20
2022-07-29T08:32:43.498Z,40.78
2022-07-29T08:34:43.073Z,41.16
2022-07-29T08:36:45.969Z,41.37
2022-07-29T08:38:52.805Z,40.53
2022-07-29T08:40:55.058Z,40.84
2022-07-29T08:42:56.661Z,39.86
2022-07-29T08:44:59.435Z,40.17
2022-07-29T08:47:01.059Z,39.91
2022-07-29T08:49:02.991Z,40.46
2022-07-29T08:51:07.627Z,41.36
2022-07-29T08:53:13.059Z,41.22
2022-07-29T08:55:16.561Z,41.69
2022-07-29T08:57:23.954Z,42.31
2022-07-29T08:59:27.662Z,42.64
2022-07-29T09:01:36.302Z,42.06
2022-07-29T09:03:45.515Z,41.86
2022-07-29T09:05:48.354Z,41.16
2022-07-29T09:07:50.586Z,40.66
2022-07-29T09:09:53.726Z,40.65
2022-07-29T09:11:58.937Z,39.88
2022-07-29T09:14:00.432Z,39.17
2022-07-29T09:16:07.046Z,38.89
2022-07-29T09:18:20.638Z,37.79
2022-07-29T09:20:32.160Z,37.62
2022-07-29T09:22:34.575Z,37.50
2022-07-29T09:24:41.562Z,37.30
2022-07-29T09:26:47.091Z,37.43
2022-07-29T09:28:48.743Z,37.53
2022-07-29T09:30:54.425Z,36.10
2022-07-29T09:32:57.201Z,36.41
2022-07-29T09:35:18.999Z,36.74
2022-07-29T09:37:30.080Z,36.33
2022-07-29T09:39:34.411Z,36.25
2022-07-29T09:41:48.790Z,35.26
2022-07-29T09:43:55.090Z,34.90
2022-07-29T09:45:56.728Z,34.66
2022-07-29T09:47:59.049Z,35.25
2022-07-29T09:50:00.915Z,34.54
2022-07-29T09:52:06.560Z,34.26
2022-07-29T09:54:23.527Z,34.18
2022-07-29T09:56:39.773Z,33.89
2022-07-29T09:58:42.741Z,33.23
2022-07-29T10:00:46.090Z,32.59
2022-07-29T10:02:48.036Z,32.63
2022-07-29T10:04:50.159Z,31.77
2022-07-29T10:07:04.290Z,32.35
2022-07-29T10:09:10.517Z,32.32
2022-07-29T10:11:14.281Z,31.44
2022-07-29T10:13:16.627Z,32.19
2022-07-29T10:15:19.788Z,32.14
2022-07-29T10:17:22.394Z,31.67
2022-07-29T10:19:24.286Z,31.91
2022-07-29T10:21:36.253Z,31.55
2022-07-29T10:23:46.271Z,32.38
2022-07-29T10:25:48.545Z,32.53
2022-07-29T10:27:50.783Z,32.22
2022-07-29T10:29:52.284Z,32.46
2022-07-29T10:32:09.844Z,32.18
2022-07-29T10:34:20.033Z,32.38
2022-07-29T10:36:43.273Z,32.04
2022-07-29T10:38:52.246Z,31.44
2022-07-29T10:41:03.378Z,31.44
2022-07-29T10:43:19.120Z,30.89
2022-07-29T10:45:22.769Z,31.21
2022-07-29T10:47:26.943Z,30.94
2022-07-29T10:49:30.744Z,30.49
2022-07-29T10:51:54.306Z,31.50
2022-07-29T10:53:56.298Z,31.27
2022-07-29T10:55:59.480Z,31.77
2022-07-29T10:58:15.370Z,32.07
2022-07-29T11:00:32.595Z,32.31
2022-07-29T11:02:46.737Z,31.94
2022-07-29T11:05:00.511Z,31.92
2022-07-29T11:07:08.813Z,32.14
2022-07-29T11:09:17.519Z,32.59
2022-07-29T11:11:37.162Z,32.50
2022-07-29T11:13:52.503Z,32.82
2022-07-29T11:15:57.876Z,32.51
2022-07-29T11:18:08.568Z,31.12
2022-07-29T11:20:39.973Z,31.32
2022-07-29T11:22:45.855Z,31.21
2022-07-29T11:25:16.743Z,31.13
2022-07-29T11:27:20.243Z,32.25
2022-07-29T11:29:22.762Z,32.22
2022-07-29T11:31:40.295Z,31.34
2022-07-29T11:33:56.211Z,31.90
2022-07-29T11:36:16.767Z,32.12
2022-07-29T11:38:27.823Z,30.85
2022-07-29T11:40:30.066Z,31.75
2022-07-29T11:42:46.371Z,32.33
2022-07-29T11:44:58.725Z,32.24
2022-07-29T11:47:06.077Z,31.98
2022-07-29T11:49:10.098Z,32.40
2022-07-29T11:51:13.331Z,32.46
2022-07-29T11:53:15.424Z,31.90
2022-07-29T11:55:20.147Z,32.26
2022-07-29T11:57:22.110Z,32.11
2022-07-29T11:59:33.409Z,32.33
2022-07-29T12:01:36.277Z,32.74
2022-07-29T12:03:37.907Z,31.89
2022-07-29T12:05:47.932Z,32.22
2022-07-29T12:07:50.043Z,33.08
2022-07-29T12:09:52.686Z,33.20
2022-07-29T12:12:04.642Z,33.40
2022-07-29T12:14:07.005Z,32.52
2022-07-29T12:16:08.789Z,32.23
2022-07-29T12:18:18.826Z,32.21
2022-07-29T12:20:25.064Z,32.89
2022-07-29T12:22:29.107Z,33.05
2022-07-29T12:24:43.945Z,32.86
2022-07-29T12:26:53.871Z,32.51
2022-07-29T12:28:55.795Z,32.30
2022-07-29T12:30:58.837Z,31.93
2022-07-29T12:33:00.953Z,32.26
2022-07-29T12:35:07.107Z,33.05
2022-07-29T12:37:10.110Z,33.08
2022-07-29T12:39:13.027Z,32.03
2022-07-29T12:41:14.858Z,32.50
2022-07-29T12:43:18.818Z,32.63
2022-07-29T12:45:29.689Z,32.56
2022-07-29T12:47:31.434Z,33.70
2022-07-29T12:49:32.985Z,33.70
2022-07-29T12:51:40.697Z,34.13
2022-07-29T12:53:42.410Z,34.62
2022-07-29T12:55:48.653Z,33.89
2022-07-29T12:57:51.767Z,33.79
2022-07-29T13:00:01.851Z,33.67
2022-07-29T13:02:03.494Z,32.55
2022-07-29T13:04:05.157Z,32.42
2022-07-29T13:06:07.003Z,32.53
2022-07-29T13:08:20.138Z,32.20
2022-07-29T13:10:24.732Z,31.76
2022-07-29T13:12:27.985Z,32.00
2022-07-29T13:14:33.926Z,31.84
2022-07-29T13:16:35.660Z,31.97
2022-07-29T13:18:37.248Z,31.76
2022-07-29T13:20:38.722Z,31.64
2022-07-29T13:22:41.314Z,31.69
2022-07-29T13:24:50.607Z,31.69
2022-07-29T13:26:52.104Z,31.67
2022-07-29T13:28:55.025Z,31.81
2022-07-29T13:30:56.683Z,31.52
2022-07-29T13:32:58.304Z,31.32
2022-07-29T13:35:01.625Z,31.73
2022-07-29T13:37:06.807Z,31.32
2022-07-29T13:39:08.323Z,30.90
2022-07-29T13:41:10.764Z,31.30
2022-07-29T13:43:12.862Z,31.28
2022-07-29T13:45:15.775Z,31.44
2022-07-29T13:47:17.331Z,31.79
2022-07-29T13:49:18.939Z,31.06
2022-07-29T13:51:20.563Z,31.67
2022-07-29T13:53:26.841Z,31.83
2022-07-29T13:55:28.842Z,32.15
2022-07-29T13:57:30.595Z,31.91
2022-07-29T13:59:32.189Z,31.92
2022-07-29T14:01:35.276Z,31.17
2022-07-29T14:03:36.901Z,31.63
2022-07-29T14:05:38.403Z,30.95
2022-07-29T14:07:39.951Z,31.01
2022-07-29T14:09:41.923Z,30.40
2022-07-29T14:11:43.602Z,31.18
2022-07-29T14:13:45.281Z,31.34
2022-07-29T14:15:46.829Z,31.76
2022-07-29T14:17:49.885Z,31.96
2022-07-29T14:19:51.467Z,31.86
2022-07-29T14:21:52.972Z,31.29
2022-07-29T14:23:54.480Z,31.43
2022-07-29T14:25:56.115Z,30.65
2022-07-29T14:27:58.504Z,30.47
2022-07-29T14:30:00.233Z,30.44
2022-07-29T14:32:02.330Z,30.84
2022-07-29T14:34:05.372Z,31.03
2022-07-29T14:36:06.973Z,31.07
2022-07-29T14:38:10.433Z,30.65
2022-07-29T14:40:12.216Z,30.51
2022-07-29T14:42:13.709Z,30.18
2022-07-29T14:44:15.358Z,30.12
2022-07-29T14:46:17.147Z,30.33
2022-07-29T14:48:18.795Z,30.55
2022-07-29T14:50:24.517Z,30.82
2022-07-29T14:52:33.838Z,31.05
2022-07-29T14:54:35.389Z,31.70
2022-07-29T14:56:37.651Z,31.79
2022-07-29T14:58:49.196Z,32.02
2022-07-29T15:00:53.703Z,31.60
2022-07-29T15:03:03.165Z,31.84
2022-07-29T15:05:05.599Z,31.04
2022-07-29T15:07:08.469Z,30.74
2022-07-29T15:09:10.247Z,30.04
2022-07-29T15:11:12.046Z,30.55
2022-07-29T15:13:13.722Z,30.47
2022-07-29T15:15:15.283Z,30.26
2022-07-29T15:17:16.798Z,30.74
2022-07-29T15:19:18.371Z,30.72
2022-07-29T15:21:20.009Z,31.12
2022-07-29T15:23:22.872Z,31.48
2022-07-29T15:25:24.991Z,31.95
2022-07-29T15:27:26.990Z,31.60
2022-07-29T15:29:28.630Z,31.75
2022-07-29T15:31:30.260Z,31.58
2022-07-29T15:33:31.838Z,31.82
2022-07-29T15:35:33.398Z,31.42
2022-07-29T15:37:48.235Z,31.43
2022-07-29T15:39:51.886Z,31.28
2022-07-29T15:41:53.579Z,30.73
2022-07-29T15:43:55.083Z,30.43
2022-07-29T15:45:56.815Z,30.66
2022-07-29T15:47:58.350Z,30.49
2022-07-29T15:49:59.827Z,29.96
2022-07-29T15:52:03.661Z,30.39
2022-07-29T15:54:05.621Z,30.47
2022-07-29T15:56:08.451Z,30.19
2022-07-29T15:58:09.998Z,30.12
2022-07-29T16:00:12.303Z,29.87
2022-07-29T16:02:13.823Z,29.67
2022-07-29T16:04:16.035Z,30.08
2022-07-29T16:06:17.663Z,30.40
2022-07-29T16:08:19.172Z,30.82
2022-07-29T16:10:20.800Z,31.37
2022-07-29T16:12:23.743Z,31.08
2022-07-29T16:14:28.445Z,30.93
2022-07-29T16:16:31.056Z,31.44
2022-07-29T16:18:32.579Z,31.13
2022-07-29T16:20:34.305Z,31.48
2022-07-29T16:22:35.846Z,31.22
2022-07-29T16:24:37.448Z,31.28
2022-07-29T16:26:38.994Z,31.17
2022-07-29T16:28:41.891Z,30.82
2022-07-29T16:30:43.498Z,31.39
2022-07-29T16:32:44.996Z,31.37
2022-07-29T16:34:46.501Z,31.55
2022-07-29T16:36:48.317Z,31.90
2022-07-29T16:38:50.276Z,31.95
2022-07-29T16:40:51.794Z,31.79
2022-07-29T16:42:53.398Z,31.84
2022-07-29T16:44:56.228Z,31.82
2022-07-29T16:46:59.706Z,31.85
2022-07-29T16:49:01.607Z,32.10
2022-07-29T16:51:03.110Z,31.81
2022-07-29T16:53:04.629Z,32.05
2022-07-29T16:55:07.192Z,31.46
2022-07-29T16:57:08.838Z,31.96
2022-07-29T16:59:10.348Z,32.08
2022-07-29T17:01:13.308Z,31.77
2022-07-29T17:03:16.311Z,32.17
2022-07-29T17:05:17.876Z,32.40
2022-07-29T17:07:19.426Z,32.11
2022-07-29T17:09:20.920Z,31.75
2022-07-29T17:11:22.559Z,32.19
2022-07-29T17:13:44.028Z,32.05
2022-07-29T17:15:45.548Z,32.44
2022-07-29T17:17:54.844Z,31.99
2022-07-29T17:19:57.125Z,32.16
2022-07-29T17:22:07.047Z,32.51
2022-07-29T17:24:11.920Z,32.84
2022-07-29T17:26:14.113Z,32.49
2022-07-29T17:28:15.610Z,32.03
2022-07-29T17:30:17.687Z,32.59
2022-07-29T17:32:19.229Z,32.09
2022-07-29T17:34:22.105Z,32.79
2022-07-29T17:36:23.641Z,32.23
2022-07-29T17:38:25.136Z,31.93
2022-07-29T17:40:26.663Z,32.04
2022-07-29T17:42:28.264Z,32.30
2022-07-29T17:44:30.153Z,32.60
2022-07-29T17:46:31.694Z,32.56
2022-07-29T17:48:33.521Z,32.80
2022-07-29T17:50:36.563Z,32.24
2022-07-29T17:52:38.061Z,32.65
2022-07-29T17:54:39.657Z,32.36
2022-07-29T17:56:41.173Z,32.49
2022-07-29T17:58:43.098Z,32.72
2022-07-29T18:00:44.863Z,32.61
2022-07-29T18:02:46.524Z,33.12
2022-07-29T18:04:50.567Z,32.79
2022-07-29T18:06:53.754Z,32.97
2022-07-29T18:08:55.503Z,33.08
2022-07-29T18:10:57.030Z,33.44
2022-07-29T18:12:58.670Z,33.61
2022-07-29T18:15:00.161Z,33.62
2022-07-29T18:17:01.969Z,33.23
2022-07-29T18:19:03.836Z,33.10
2022-07-29T18:21:05.412Z,33.41
2022-07-29T18:23:08.422Z,34.06
2022-07-29T18:25:09.980Z,34.14
2022-07-29T18:27:11.601Z,34.02
2022-07-29T18:29:13.097Z,34.55
2022-07-29T18:31:14.713Z,34.40
2022-07-29T18:33:21.257Z,34.58
2022-07-29T18:35:23.463Z,34.69
2022-07-29T18:38:00.636Z,34.54
2022-07-29T18:39:47.909Z,34.57
2022-07-29T18:41:51.032Z,34.78
2022-07-29T18:43:52.982Z,35.17
2022-07-29T18:45:56.142Z,34.94
2022-07-29T18:47:58.780Z,35.50
2022-07-29T18:50:00.487Z,35.35
2022-07-29T18:52:02.040Z,35.59
2022-07-29T18:54:03.830Z,35.64
2022-07-29T18:56:06.743Z,35.95
2022-07-29T18:58:08.260Z,36.24
2022-07-29T19:00:11.181Z,36.02
2022-07-29T19:02:14.675Z,36.33
2022-07-29T19:04:17.041Z,36.34
2022-07-29T19:06:22.651Z,36.38
2022-07-29T19:08:26.886Z,36.65
2022-07-29T19:10:29.054Z,36.61
2022-07-29T19:12:32.005Z,36.93
2022-07-29T19:14:33.666Z,36.89
2022-07-29T19:16:35.305Z,37.13
2022-07-29T19:18:36.926Z,37.08
2022-07-29T19:20:38.487Z,37.30
2022-07-29T19:22:40.043Z,37.46
2022-07-29T19:24:41.586Z,37.47
2022-07-29T19:26:43.144Z,37.46
2022-07-29T19:28:48.772Z,37.58
2022-07-29T19:30:50.941Z,37.68
2022-07-29T19:32:52.521Z,37.90
2022-07-29T19:34:54.077Z,37.91
2022-07-29T19:36:56.016Z,38.07
2022-07-29T19:38:57.780Z,37.97
2022-07-29T19:40:59.441Z,37.96
2022-07-29T19:43:00.961Z,38.23
2022-07-29T19:45:05.090Z,38.45
2022-07-29T19:47:06.894Z,39.04
2022-07-29T19:49:08.476Z,39.84
2022-07-29T19:51:10.238Z,39.16
2022-07-29T19:53:11.858Z,39.07
2022-07-29T19:55:14.291Z,38.96
2022-07-29T19:57:15.958Z,39.35
2022-07-29T19:59:17.717Z,39.13
2022-07-29T20:01:26.987Z,39.22
2022-07-29T20:03:28.863Z,39.15
2022-07-29T20:05:30.738Z,39.71
2022-07-29T20:07:32.936Z,39.67
2022-07-29T20:09:34.772Z,39.50
2022-07-29T20:11:36.304Z,39.54
2022-07-29T20:13:38.857Z,39.06
2022-07-29T20:15:40.445Z,39.26
2022-07-29T20:17:43.674Z,39.19
2022-07-29T20:19:45.387Z,39.47
2022-07-29T20:21:46.927Z,39.63
2022-07-29T20:23:48.494Z,39.50
2022-07-29T20:25:50.190Z,39.32
2022-07-29T20:27:52.133Z,39.11
2022-07-29T20:29:54.036Z,39.71
2022-07-29T20:31:56.445Z,39.30
2022-07-29T20:34:00.850Z,39.49
2022-07-29T20:36:02.357Z,39.57
2022-07-29T20:38:03.831Z,39.10
2022-07-29T20:40:07.184Z,39.97
2022-07-29T20:42:14.289Z,39.73
2022-07-29T20:44:16.287Z,39.84
2022-07-29T20:46:18.009Z,39.72
2022-07-29T20:48:19.585Z,39.67
2022-07-29T20:50:23.680Z,39.56
2022-07-29T20:52:25.784Z,39.62
2022-07-29T20:54:27.344Z,40.00
2022-07-29T20:56:29.037Z,40.40
2022-07-29T20:58:30.572Z,40.02
2022-07-29T21:00:32.122Z,39.81
2022-07-29T21:02:33.749Z,39.80
2022-07-29T21:04:35.470Z,39.91
2022-07-29T21:06:38.340Z,40.18
2022-07-29T21:08:39.897Z,40.25
2022-07-29T21:10:41.430Z,40.39
2022-07-29T21:12:42.982Z,40.44
2022-07-29T21:14:44.556Z,40.51
2022-07-29T21:16:46.134Z,40.69
2022-07-29T21:18:47.647Z,41.03
2022-07-29T21:20:49.145Z,41.42
2022-07-29T21:22:52.405Z,41.39
2022-07-29T21:24:53.933Z,41.84
2022-07-29T21:27:19.371Z,41.71
2022-07-29T21:29:17.105Z,42.33
2022-07-29T21:31:18.762Z,42.50
2022-07-29T21:33:20.402Z,42.37
2022-07-29T21:36:02.151Z,43.01
2022-07-29T21:37:43.533Z,42.64
2022-07-29T21:39:46.413Z,42.65
2022-07-29T21:41:47.984Z,43.06
2022-07-29T21:43:49.520Z,43.22
2022-07-29T21:45:51.074Z,43.30
2022-07-29T21:47:52.658Z,43.26
2022-07-29T21:49:54.180Z,43.11
2022-07-29T21:51:55.941Z,43.48
2022-07-29T21:53:58.491Z,43.75
2022-07-29T21:56:01.824Z,43.64
2022-07-29T21:58:03.860Z,43.68
2022-07-29T22:00:07.705Z,43.60
2022-07-29T22:02:09.280Z,43.72
2022-07-29T22:04:10.928Z,44.02
2022-07-29T22:06:18.209Z,43.95
2022-07-29T22:08:19.782Z,43.72
2022-07-29T22:10:21.670Z,44.09
2022-07-29T22:12:24.574Z,43.98
2022-07-29T22:14:26.069Z,44.21
2022-07-29T22:16:27.621Z,44.16
2022-07-29T22:18:29.233Z,44.16
2022-07-29T22:20:30.737Z,44.27
2022-07-29T22:22:32.407Z,44.29
2022-07-29T22:24:33.912Z,44.32
2022-07-29T22:26:35.430Z,44.17
2022-07-29T22:28:38.333Z,44.04
2022-07-29T22:30:42.186Z,44.21
2022-07-29T22:32:44.004Z,44.33
2022-07-29T22:34:45.704Z,44.02
2022-07-29T22:36:47.335Z,44.13
2022-07-29T22:38:51.873Z,43.98
2022-07-29T22:40:53.703Z,43.90
2022-07-29T22:43:02.164Z,44.14
2022-07-29T22:45:05.905Z,44.10
2022-07-29T22:47:07.593Z,44.06
2022-07-29T22:49:09.322Z,44.05
2022-07-29T22:51:10.885Z,44.28
2022-07-29T22:53:12.426Z,44.37
2022-07-29T22:55:14.475Z,44.37
2022-07-29T22:57:16.015Z,44.49
2022-07-29T22:59:17.653Z,44.43
2022-07-29T23:01:37.538Z,44.65
2022-07-29T23:03:39.849Z,44.77
2022-07-29T23:05:41.398Z,44.76
2022-07-29T23:07:42.955Z,44.76
2022-07-29T23:09:44.497Z,44.94
2022-07-29T23:11:46.032Z,45.29
2022-07-29T23:13:47.596Z,45.07
2022-07-29T23:15:49.191Z,45.12
2022-07-29T23:17:52.108Z,45.40
2022-07-29T23:19:53.735Z,45.38
2022-07-29T23:21:55.252Z,45.45
2022-07-29T23:23:56.759Z,45.49
2022-07-29T23:25:58.338Z,45.80
2022-07-29T23:28:00.010Z,45.81
2022-07-29T23:30:01.758Z,46.03
2022-07-29T23:32:03.613Z,46.18
2022-07-29T23:34:06.582Z,46.49
2022-07-29T23:36:08.514Z,46.25
2022-07-29T23:38:10.071Z,46.28
2022-07-29T23:40:14.491Z,46.38
2022-07-29T23:42:16.439Z,46.48
2022-07-29T23:44:17.969Z,46.54
2022-07-29T23:46:23.862Z,46.68
2022-07-29T23:48:28.842Z,46.74
2022-07-29T23:50:31.729Z,46.68
2022-07-29T23:52:33.404Z,47.04
2022-07-29T23:54:37.100Z,46.99
2022-07-29T23:56:38.711Z,47.08
2022-07-29T23:58:40.275Z,47.09
